createdAt,value
2022-12-08T00:00:17.846Z,-0.9
2022-12-08T00:03:30.142Z,-0.9
2022-12-08T00:06:18.248Z,-0.9
2022-12-08T00:09:42.947Z,-0.9
2022-12-08T00:12:30.566Z,-0.9
2022-12-08T00:15:18.116Z,-0.9
2022-12-08T00:18:05.664Z,-0.9
2022-12-08T00:20:53.332Z,-1
2022-12-08T00:23:41.148Z,-1
2022-12-08T00:26:29.345Z,-1
2022-12-08T00:29:17.688Z,-1
2022-12-08T00:32:05.490Z,-1
2022-12-08T00:34:53.212Z,-1
2022-12-08T00:37:40.799Z,-1
2022-12-08T00:40:28.869Z,-1
2022-12-08T00:43:16.468Z,-1
2022-12-08T00:46:04.149Z,-1
2022-12-08T00:48:51.855Z,-1
2022-12-08T00:51:39.363Z,-1
2022-12-08T00:54:26.959Z,-1
2022-12-08T00:57:14.658Z,-1.1
2022-12-08T01:00:02.640Z,-1.1
2022-12-08T01:02:53.756Z,-1.1
2022-12-08T01:05:41.314Z,-1.1
2022-12-08T01:08:29.686Z,-1.2
2022-12-08T01:11:17.590Z,-1.2
2022-12-08T01:14:05.595Z,-1.2
2022-12-08T01:16:53.238Z,-1.2
2022-12-08T01:19:41.013Z,-1.2
2022-12-08T01:22:29.361Z,-1.2
2022-12-08T01:25:18.935Z,-1.2
2022-12-08T01:28:06.404Z,-1.3
2022-12-08T01:30:54.083Z,-1.3
2022-12-08T01:33:41.776Z,-1.3
2022-12-08T01:36:30.533Z,-1.3
2022-12-08T01:39:21.649Z,-1.3
2022-12-08T01:42:09.233Z,-1.3
2022-12-08T01:45:05.848Z,-1.4
2022-12-08T01:48:00.300Z,-1.4
2022-12-08T01:50:51.667Z,-1.4
2022-12-08T01:53:40.664Z,-1.5
2022-12-08T01:56:28.954Z,-1.5
2022-12-08T01:59:22.683Z,-1.5
2022-12-08T02:02:11.240Z,-1.5
2022-12-08T02:04:59.384Z,-1.5
2022-12-08T02:07:48.419Z,-1.5
2022-12-08T02:10:37.474Z,-1.6
2022-12-08T02:13:27.454Z,-1.6
2022-12-08T02:16:17.373Z,-1.6
2022-12-08T02:19:30.820Z,-1.6
2022-12-08T02:22:41.635Z,-1.7
2022-12-08T02:25:36.445Z,-1.7
2022-12-08T02:28:42.019Z,-1.7
2022-12-08T02:31:52.995Z,-1.7
2022-12-08T02:34:58.927Z,-1.7
2022-12-08T02:37:54.057Z,-1.7
2022-12-08T02:40:51.659Z,-1.7
2022-12-08T02:43:51.601Z,-1.7
2022-12-08T02:46:46.309Z,-1.8
2022-12-08T02:49:37.339Z,-1.8
2022-12-08T02:52:25.074Z,-1.8
2022-12-08T02:55:30.802Z,-1.8
2022-12-08T02:58:29.623Z,-1.8
2022-12-08T03:01:37.810Z,-1.8
2022-12-08T03:04:43.894Z,-1.8
2022-12-08T03:07:39.405Z,-1.8
2022-12-08T03:10:32.812Z,-1.8
2022-12-08T03:13:26.044Z,-1.8
2022-12-08T03:16:20.463Z,-1.8
2022-12-08T03:19:11.103Z,-1.8
2022-12-08T03:22:04.527Z,-1.8
2022-12-08T03:24:54.127Z,-1.8
2022-12-08T03:27:43.165Z,-1.9
2022-12-08T03:30:31.213Z,-1.8
2022-12-08T03:33:23.816Z,-1.7
2022-12-08T03:36:15.426Z,-1.8
2022-12-08T03:39:04.050Z,-1.8
2022-12-08T03:41:51.599Z,-1.8
2022-12-08T03:44:39.311Z,-1.8
2022-12-08T03:47:26.871Z,-1.8
2022-12-08T03:50:14.510Z,-1.8
2022-12-08T03:53:02.205Z,-1.8
2022-12-08T03:55:49.821Z,-1.8
2022-12-08T03:58:38.573Z,-1.8
2022-12-08T04:01:26.317Z,-1.8
2022-12-08T04:04:13.876Z,-1.8
2022-12-08T04:07:01.515Z,-1.8
2022-12-08T04:09:49.105Z,-1.7
2022-12-08T04:12:36.728Z,-1.6
2022-12-08T04:15:24.608Z,-1.6
2022-12-08T04:18:12.154Z,-1.6
2022-12-08T04:21:00.153Z,-1.6
2022-12-08T04:23:47.895Z,-1.6
2022-12-08T04:26:35.842Z,-1.6
2022-12-08T04:29:23.509Z,-1.5
2022-12-08T04:32:11.104Z,-1.5
2022-12-08T04:34:58.673Z,-1.5
2022-12-08T04:37:46.180Z,-1.5
2022-12-08T04:40:33.706Z,-1.5
2022-12-08T04:43:21.226Z,-1.5
2022-12-08T04:46:09.033Z,-1.4
2022-12-08T04:48:56.880Z,-1.5
2022-12-08T04:51:44.626Z,-1.4
2022-12-08T04:54:32.107Z,-1.4
2022-12-08T04:57:19.874Z,-1.4
2022-12-08T05:00:07.743Z,-1.4
2022-12-08T05:02:57.109Z,-1.4
2022-12-08T05:05:44.774Z,-1.4
2022-12-08T05:08:32.652Z,-1.4
2022-12-08T05:11:20.228Z,-1.5
2022-12-08T05:14:07.795Z,-1.5
2022-12-08T05:16:57.694Z,-1.5
2022-12-08T05:19:45.312Z,-1.5
2022-12-08T05:22:32.862Z,-1.5
2022-12-08T05:25:20.400Z,-1.5
2022-12-08T05:28:39.535Z,-1.5
2022-12-08T05:31:29.036Z,-1.5
2022-12-08T05:34:16.877Z,-1.5
2022-12-08T05:37:04.557Z,-1.5
2022-12-08T05:39:52.121Z,-1.5
2022-12-08T05:42:39.692Z,-1.5
2022-12-08T05:45:27.385Z,-1.5
2022-12-08T05:48:14.923Z,-1.5
2022-12-08T05:51:02.546Z,-1.4
2022-12-08T05:54:01.096Z,-1.4
2022-12-08T05:56:48.848Z,-1.3
2022-12-08T05:59:36.506Z,-1.3
2022-12-08T06:02:24.597Z,-1.3
2022-12-08T06:05:13.340Z,-1.3
2022-12-08T06:08:01.179Z,-1.2
2022-12-08T06:10:49.134Z,-1.2
2022-12-08T06:13:36.601Z,-1.2
2022-12-08T06:16:24.158Z,-1.1
2022-12-08T06:19:13.101Z,-1.1
2022-12-08T06:22:01.630Z,-1.1
2022-12-08T06:24:49.095Z,-1.1
2022-12-08T06:27:36.646Z,-1
2022-12-08T06:30:24.264Z,-1
2022-12-08T06:33:13.197Z,-1
2022-12-08T06:36:00.748Z,-1
2022-12-08T06:38:48.665Z,-1
2022-12-08T06:41:36.967Z,-1
2022-12-08T06:45:28.504Z,-0.9
2022-12-08T06:48:16.079Z,-0.9
2022-12-08T06:51:04.598Z,-0.9
2022-12-08T06:53:54.306Z,-0.8
2022-12-08T06:56:41.880Z,-0.8
2022-12-08T06:59:30.089Z,-0.8
2022-12-08T07:02:17.655Z,-0.8
2022-12-08T07:05:05.478Z,-0.7
2022-12-08T07:07:53.267Z,-0.7
2022-12-08T07:10:40.910Z,-0.7
2022-12-08T07:13:29.489Z,-0.6
2022-12-08T07:16:17.113Z,-0.6
2022-12-08T07:19:04.780Z,-0.6
2022-12-08T07:21:52.348Z,-0.6
2022-12-08T07:24:39.882Z,-0.6
2022-12-08T07:27:27.576Z,-0.5
2022-12-08T07:30:15.209Z,-0.5
2022-12-08T07:33:03.305Z,-0.5
2022-12-08T07:35:51.399Z,-0.5
2022-12-08T07:38:41.032Z,-0.5
2022-12-08T07:41:29.928Z,-0.5
2022-12-08T07:44:18.260Z,-0.5
2022-12-08T07:47:05.794Z,-0.5
2022-12-08T07:49:53.526Z,-0.4
2022-12-08T07:52:41.101Z,-0.4
2022-12-08T07:55:28.870Z,-0.4
2022-12-08T07:58:16.471Z,-0.3
2022-12-08T08:01:04.163Z,-0.3
2022-12-08T08:03:52.540Z,-0.3
2022-12-08T08:06:42.149Z,-0.3
2022-12-08T08:09:30.313Z,-0.3
2022-12-08T08:12:31.406Z,-0.3
2022-12-08T08:15:19.825Z,-0.2
2022-12-08T08:18:07.397Z,-0.2
2022-12-08T08:20:54.994Z,-0.2
2022-12-08T08:23:42.763Z,-0.2
2022-12-08T08:26:30.939Z,-0.2
2022-12-08T08:29:18.561Z,-0.2
2022-12-08T08:32:06.838Z,-0.2
2022-12-08T08:34:54.502Z,-0.2
2022-12-08T08:37:47.086Z,-0.2
2022-12-08T08:40:36.369Z,-0.2
2022-12-08T08:43:23.923Z,-0.1
2022-12-08T08:46:14.749Z,-0.1
2022-12-08T08:49:02.338Z,-0.1
2022-12-08T08:51:49.866Z,-0.1
2022-12-08T08:54:37.648Z,0
2022-12-08T08:57:26.011Z,0
2022-12-08T09:00:13.900Z,0
2022-12-08T09:03:02.265Z,0.1
2022-12-08T09:05:50.178Z,0.1
2022-12-08T09:08:38.030Z,0.1
2022-12-08T09:11:26.055Z,0.1
2022-12-08T09:14:13.607Z,0.1
2022-12-08T09:17:01.426Z,0.2
2022-12-08T09:19:49.419Z,0.2
2022-12-08T09:22:37.013Z,0.2
2022-12-08T09:25:24.874Z,0.2
2022-12-08T09:28:13.176Z,0.2
2022-12-08T09:31:00.745Z,0.2
2022-12-08T09:33:49.103Z,0.3
2022-12-08T09:36:36.856Z,0.3
2022-12-08T09:39:24.617Z,0.4
2022-12-08T09:42:12.354Z,0.4
2022-12-08T09:45:11.135Z,0.5
2022-12-08T09:48:01.437Z,0.6
2022-12-08T09:50:56.050Z,0.6
2022-12-08T09:53:44.303Z,0.6
2022-12-08T09:56:35.891Z,0.6
2022-12-08T09:59:23.953Z,0.6
2022-12-08T10:02:16.663Z,0.6
2022-12-08T10:05:08.682Z,0.6
2022-12-08T10:07:59.608Z,0.6
2022-12-08T10:10:55.639Z,0.6
2022-12-08T10:13:50.166Z,0.6
2022-12-08T10:16:49.520Z,0.7
2022-12-08T10:19:43.688Z,0.7
2022-12-08T10:22:32.788Z,0.8
2022-12-08T10:25:20.984Z,0.8
2022-12-08T10:28:15.028Z,0.9
2022-12-08T10:31:02.978Z,0.9
2022-12-08T10:33:50.783Z,0.9
2022-12-08T10:36:43.599Z,1
2022-12-08T10:39:35.696Z,1.1
2022-12-08T10:42:25.257Z,1.1
2022-12-08T10:45:21.684Z,1.1
2022-12-08T10:48:13.386Z,1.1
2022-12-08T10:51:04.761Z,1.1
2022-12-08T10:54:08.387Z,1.2
2022-12-08T10:57:12.879Z,1.2
2022-12-08T11:00:12.454Z,1.2
2022-12-08T11:03:04.307Z,1.2
2022-12-08T11:06:10.841Z,1.2
2022-12-08T11:09:03.515Z,1.3
2022-12-08T11:12:07.014Z,1.3
2022-12-08T11:14:59.119Z,1.3
2022-12-08T11:17:53.339Z,1.3
2022-12-08T11:20:51.439Z,1.3
2022-12-08T11:23:46.949Z,1.3
2022-12-08T11:26:35.842Z,1.4
2022-12-08T11:29:24.182Z,1.4
2022-12-08T11:32:13.443Z,1.4
2022-12-08T11:35:01.135Z,1.4
2022-12-08T11:37:51.728Z,1.4
2022-12-08T11:40:42.131Z,1.5
2022-12-08T11:43:30.277Z,1.5
2022-12-08T11:46:29.680Z,1.5
2022-12-08T11:49:25.380Z,1.5
2022-12-08T11:52:21.160Z,1.5
2022-12-08T11:55:14.810Z,1.5
2022-12-08T11:58:15.794Z,1.5
2022-12-08T12:01:06.621Z,1.6
2022-12-08T12:04:03.517Z,1.6
2022-12-08T12:07:06.585Z,1.6
2022-12-08T12:10:37.804Z,1.6
2022-12-08T12:13:39.874Z,1.6
2022-12-08T12:16:45.758Z,1.6
2022-12-08T12:19:45.926Z,1.6
2022-12-08T12:22:35.125Z,1.6
2022-12-08T12:25:23.600Z,1.7
2022-12-08T12:28:12.891Z,1.7
2022-12-08T12:31:01.325Z,1.8
2022-12-08T12:33:53.437Z,1.8
2022-12-08T12:36:50.260Z,1.8
2022-12-08T12:39:40.911Z,1.9
2022-12-08T12:42:39.696Z,1.9
2022-12-08T12:45:30.260Z,1.9
2022-12-08T12:48:19.396Z,2
2022-12-08T12:51:10.686Z,2
2022-12-08T12:54:30.804Z,2.1
2022-12-08T12:57:18.418Z,2.2
2022-12-08T13:00:09.575Z,2.2
2022-12-08T13:03:04.821Z,2.3
2022-12-08T13:05:59.616Z,2.4
2022-12-08T13:08:48.531Z,2.4
2022-12-08T13:11:43.401Z,2.4
2022-12-08T13:14:37.341Z,2.4
2022-12-08T13:17:32.203Z,2.3
2022-12-08T13:20:22.785Z,2.4
2022-12-08T13:23:11.330Z,2.4
2022-12-08T13:26:13.504Z,2.4
2022-12-08T13:29:05.496Z,2.4
2022-12-08T13:32:06.789Z,2.3
2022-12-08T13:35:41.575Z,2.3
2022-12-08T13:38:35.656Z,2.3
2022-12-08T13:41:25.165Z,2.2
2022-12-08T13:45:18.114Z,2.2
2022-12-08T13:48:30.210Z,2.2
2022-12-08T13:58:24.232Z,2.1
2022-12-08T14:01:14.141Z,2.1
2022-12-08T14:04:34.228Z,2.1
2022-12-08T14:07:35.463Z,2.1
2022-12-08T14:10:25.168Z,2.1
2022-12-08T14:13:16.544Z,2.1
2022-12-08T14:16:04.348Z,2.1
2022-12-08T14:19:00.617Z,2.1
2022-12-08T14:21:51.845Z,2.1
2022-12-08T14:24:44.587Z,2.1
2022-12-08T14:27:34.359Z,2.1
2022-12-08T14:30:23.480Z,2
2022-12-08T14:33:16.397Z,2
2022-12-08T14:36:04.873Z,2
2022-12-08T14:38:55.922Z,2
2022-12-08T14:41:44.264Z,1.9
2022-12-08T14:44:44.804Z,1.9
2022-12-08T14:47:32.474Z,1.9
2022-12-08T14:50:20.386Z,1.9
2022-12-08T14:53:26.932Z,1.9
2022-12-08T14:56:24.388Z,1.8
2022-12-08T14:59:17.927Z,1.8
2022-12-08T15:02:10.491Z,1.8
2022-12-08T15:05:11.168Z,1.8
2022-12-08T15:08:02.099Z,1.8
2022-12-08T15:10:54.362Z,1.8
2022-12-08T15:14:18.165Z,1.8
2022-12-08T15:17:16.754Z,1.8
2022-12-08T15:20:18.310Z,1.8
2022-12-08T15:23:20.142Z,1.8
2022-12-08T15:26:12.068Z,1.8
2022-12-08T15:29:05.365Z,1.8
2022-12-08T15:31:59.253Z,1.8
2022-12-08T15:34:47.590Z,1.8
2022-12-08T15:37:35.392Z,1.8
2022-12-08T15:40:23.084Z,1.7
2022-12-08T15:43:11.853Z,1.7
2022-12-08T15:46:00.272Z,1.6
2022-12-08T15:48:53.668Z,1.6
2022-12-08T15:51:45.373Z,1.6
2022-12-08T15:54:34.001Z,1.6
2022-12-08T15:57:30.034Z,1.6
2022-12-08T16:00:52.919Z,1.6
2022-12-08T16:04:20.225Z,1.7
2022-12-08T16:07:22.456Z,1.7
2022-12-08T16:10:13.166Z,1.7
2022-12-08T16:16:36.781Z,1.8
2022-12-08T16:19:25.351Z,1.8
2022-12-08T16:25:52.804Z,1.8
2022-12-08T16:28:58.255Z,1.8
2022-12-08T16:31:45.977Z,1.8
2022-12-08T16:34:33.978Z,1.8
2022-12-08T16:37:21.942Z,1.9
2022-12-08T16:40:11.555Z,1.9
2022-12-08T16:42:59.907Z,1.9
2022-12-08T16:45:47.787Z,1.9
2022-12-08T16:48:35.395Z,1.9
2022-12-08T16:51:26.771Z,1.9
2022-12-08T16:54:14.776Z,1.9
2022-12-08T16:57:02.342Z,1.9
2022-12-08T16:59:49.975Z,1.9
2022-12-08T17:02:37.734Z,1.9
2022-12-08T17:05:25.822Z,1.9
2022-12-08T17:08:13.696Z,1.9
2022-12-08T17:11:01.464Z,1.9
2022-12-08T17:13:52.431Z,1.9
2022-12-08T17:16:40.209Z,1.9
2022-12-08T17:19:28.651Z,1.9
2022-12-08T17:22:16.475Z,1.9
2022-12-08T17:25:04.122Z,1.9
2022-12-08T17:27:52.624Z,1.9
2022-12-08T17:30:41.070Z,1.9
2022-12-08T17:33:28.916Z,1.9
2022-12-08T17:36:16.604Z,1.9
2022-12-08T17:39:16.462Z,1.9
2022-12-08T17:42:08.438Z,1.9
2022-12-08T17:44:56.307Z,1.9
2022-12-08T17:47:44.126Z,1.8
2022-12-08T17:50:31.921Z,1.9
2022-12-08T17:53:24.001Z,1.9
2022-12-08T17:56:11.676Z,1.9
2022-12-08T17:59:01.765Z,1.9
2022-12-08T18:01:49.683Z,1.9
2022-12-08T18:04:37.578Z,1.9
2022-12-08T18:07:25.153Z,1.9
2022-12-08T18:10:12.619Z,1.9
2022-12-08T18:13:00.802Z,1.9
2022-12-08T18:15:49.484Z,1.9
2022-12-08T18:18:37.168Z,1.8
2022-12-08T18:21:25.026Z,1.8
2022-12-08T18:24:12.848Z,1.8
2022-12-08T18:27:06.617Z,1.8
2022-12-08T18:29:54.190Z,1.8
2022-12-08T18:32:41.864Z,1.8
2022-12-08T18:35:29.908Z,1.8
2022-12-08T18:38:17.875Z,1.8
2022-12-08T18:41:05.929Z,1.8
2022-12-08T18:43:57.377Z,1.8
2022-12-08T18:46:44.952Z,1.8
2022-12-08T18:49:32.856Z,1.8
2022-12-08T18:52:28.134Z,1.7
2022-12-08T18:55:19.568Z,1.7
2022-12-08T18:58:07.156Z,1.7
2022-12-08T19:00:55.680Z,1.7
2022-12-08T19:04:04.771Z,1.7
2022-12-08T19:07:07.277Z,1.8
2022-12-08T19:09:55.594Z,1.8
2022-12-08T19:12:44.273Z,1.8
2022-12-08T19:15:35.163Z,1.8
2022-12-08T19:18:22.834Z,1.8
2022-12-08T19:21:10.360Z,1.8
2022-12-08T19:23:58.417Z,1.9
2022-12-08T19:26:46.159Z,1.9
2022-12-08T19:29:33.714Z,1.9
2022-12-08T19:32:21.416Z,2
2022-12-08T19:35:09.207Z,2
2022-12-08T19:37:57.052Z,2
2022-12-08T19:40:44.785Z,2
2022-12-08T19:44:04.038Z,2.1
2022-12-08T19:47:23.754Z,2.1
2022-12-08T19:50:12.740Z,2.1
2022-12-08T19:53:33.647Z,2
2022-12-08T19:56:21.442Z,1.9
2022-12-08T19:59:09.019Z,1.9
2022-12-08T20:01:58.230Z,1.9
2022-12-08T20:04:45.875Z,1.8
2022-12-08T20:07:33.454Z,1.7
2022-12-08T20:10:21.395Z,1.6
2022-12-08T20:13:12.806Z,1.5
2022-12-08T20:16:32.326Z,1.5
2022-12-08T20:19:20.670Z,1.5
2022-12-08T20:22:08.348Z,1.4
2022-12-08T20:25:00.707Z,1.4
2022-12-08T20:27:49.375Z,1.3
2022-12-08T20:30:37.041Z,1.2
2022-12-08T20:33:25.515Z,1.2
2022-12-08T20:36:13.314Z,1.1
2022-12-08T20:39:06.480Z,1.1
2022-12-08T20:41:58.282Z,1.1
2022-12-08T20:44:46.388Z,1.1
2022-12-08T20:47:33.983Z,1.1
2022-12-08T20:50:21.924Z,1.1
2022-12-08T20:53:09.855Z,1.1
2022-12-08T20:55:57.496Z,1
2022-12-08T20:58:45.161Z,1
2022-12-08T21:01:34.020Z,1.1
2022-12-08T21:04:22.028Z,1.1
2022-12-08T21:07:09.821Z,1.1
2022-12-08T21:09:58.305Z,1.1
2022-12-08T21:12:46.069Z,1.1
2022-12-08T21:15:33.859Z,1.1
2022-12-08T21:18:21.522Z,1.1
2022-12-08T21:21:10.022Z,1.1
2022-12-08T21:24:00.081Z,1.1
2022-12-08T21:26:48.351Z,1.1
2022-12-08T21:29:36.152Z,1.1
2022-12-08T21:32:29.949Z,1
2022-12-08T21:35:18.379Z,1
2022-12-08T21:38:06.105Z,1
2022-12-08T21:40:53.958Z,1
2022-12-08T21:43:46.302Z,1
2022-12-08T21:46:34.274Z,1
2022-12-08T21:49:22.328Z,1
2022-12-08T21:52:09.859Z,1
2022-12-08T21:54:57.448Z,0.9
2022-12-08T21:57:45.087Z,0.9
2022-12-08T22:00:32.917Z,0.9
2022-12-08T22:03:20.809Z,0.9
2022-12-08T22:06:08.842Z,0.9
2022-12-08T22:08:57.946Z,0.9
2022-12-08T22:11:46.070Z,0.9
2022-12-08T22:14:34.215Z,1
2022-12-08T22:17:21.949Z,1
2022-12-08T22:20:10.387Z,1
2022-12-08T22:23:00.301Z,1
2022-12-08T22:25:48.044Z,1.1
2022-12-08T22:28:42.919Z,1.1
2022-12-08T22:31:31.470Z,1.1
2022-12-08T22:34:19.240Z,1.1
2022-12-08T22:37:06.918Z,1.1
2022-12-08T22:39:54.744Z,1.1
2022-12-08T22:42:42.391Z,1.1
2022-12-08T22:45:30.623Z,1.1
2022-12-08T22:48:18.290Z,1.1
2022-12-08T22:51:06.039Z,1.1
2022-12-08T22:53:54.613Z,1
2022-12-08T22:56:42.346Z,1
2022-12-08T22:59:30.622Z,1
2022-12-08T23:02:19.266Z,1.1
2022-12-08T23:05:06.993Z,1.1
2022-12-08T23:07:55.740Z,1.1
2022-12-08T23:10:43.284Z,1.1
2022-12-08T23:13:31.965Z,1.2
2022-12-08T23:16:19.669Z,1.2
2022-12-08T23:19:08.186Z,1.2
2022-12-08T23:21:55.866Z,1.2
2022-12-08T23:24:43.770Z,1.2
2022-12-08T23:27:31.839Z,1.2
2022-12-08T23:30:19.923Z,1.2
2022-12-08T23:33:09.884Z,1.2
2022-12-08T23:35:58.123Z,1.2
2022-12-08T23:38:49.658Z,1.2
2022-12-08T23:41:38.707Z,1.2
2022-12-08T23:44:26.955Z,1.2
2022-12-08T23:47:15.347Z,1.2
2022-12-08T23:50:04.326Z,1.1
2022-12-08T23:52:54.219Z,1.1
2022-12-08T23:55:42.248Z,1.1
2022-12-08T23:58:30.401Z,1.1
